Time;durP1;ratioP1;P1;durP2;ratioP2;P2;SDS_P1;SDS_P2;PMS_P1;PMS_P2;Temp;Humidity;BMP_temperature;BMP_pressure;BME280_temperature;BME280_humidity;BME280_pressure;Samples;Min_cycle;Max_cycle;Signal;HPM_P1;HPM_P2
2022/08/17 00:01:46;;;;;;;2.55;1.10;;;;;;;;;;4197574;28;20059;-60
2022/08/17 00:03:47;;;;;;;5.78;1.50;;;;;;;;;;4202039;28;20063;-60
2022/08/17 00:06:10;;;;;;;3.80;2.10;;;;;;;;;;4213821;28;20028;-60
2022/08/17 00:08:13;;;;;;;5.45;2.60;;;;;;;;;;4214066;28;20093;-60
2022/08/17 00:10:14;;;;;;;2.97;1.70;;;;;;;;;;4213841;28;20426;-60
2022/08/17 00:12:15;;;;;;;5.03;2.10;;;;;;;;;;4213763;28;20028;-60
2022/08/17 00:14:17;;;;;;;6.18;1.70;;;;;;;;;;4213921;28;20047;-62
2022/08/17 00:16:21;;;;;;;8.00;3.17;;;;;;;;;;4188239;28;20044;-60
2022/08/17 00:18:22;;;;;;;5.53;1.75;;;;;;;;;;4195214;28;20040;-60
2022/08/17 00:20:23;;;;;;;6.95;2.20;;;;;;;;;;4189913;28;20033;-60
2022/08/17 00:22:23;;;;;;;4.28;1.75;;;;;;;;;;4180053;28;20032;-60
2022/08/17 00:24:24;;;;;;;3.40;2.03;;;;;;;;;;4180823;28;20071;-60
2022/08/17 00:26:26;;;;;;;5.47;1.77;;;;;;;;;;4180429;28;20121;-60
2022/08/17 00:28:26;;;;;;;4.30;1.75;;;;;;;;;;4180644;28;20033;-60
2022/08/17 00:30:28;;;;;;;7.13;2.25;;;;;;;;;;4180583;28;20441;-60
2022/08/17 00:32:34;;;;;;;6.43;2.47;;;;;;;;;;4184390;28;20103;-60
2022/08/17 00:34:38;;;;;;;2.30;1.98;;;;;;;;;;4182341;28;20106;-60
2022/08/17 00:36:41;;;;;;;4.90;2.47;;;;;;;;;;4180533;28;20492;-61
2022/08/17 00:38:42;;;;;;;3.55;1.88;;;;;;;;;;4201693;28;20557;-60
2022/08/17 00:40:45;;;;;;;4.75;2.55;;;;;;;;;;4196485;28;20040;-60
2022/08/17 00:42:46;;;;;;;7.25;3.58;;;;;;;;;;4196818;28;20414;-60
2022/08/17 00:44:47;;;;;;;7.43;4.07;;;;;;;;;;4201395;28;20406;-59
2022/08/17 00:46:48;;;;;;;6.72;3.03;;;;;;;;;;4197159;28;20103;-60
2022/08/17 00:48:49;;;;;;;9.50;4.03;;;;;;;;;;4196759;28;20032;-60
2022/08/17 00:50:57;;;;;;;10.52;5.45;;;;;;;;;;4196560;28;20527;-61
2022/08/17 00:52:57;;;;;;;3.50;3.00;;;;;;;;;;4196698;28;20049;-60
2022/08/17 00:54:59;;;;;;;7.32;3.35;;;;;;;;;;4184765;28;20052;-60
2022/08/17 00:57:06;;;;;;;7.40;3.45;;;;;;;;;;4180016;28;20037;-61
2022/08/17 00:59:07;;;;;;;5.53;3.30;;;;;;;;;;4180218;28;20071;-60
2022/08/17 01:01:12;;;;;;;7.40;4.43;;;;;;;;;;4179730;28;20099;-61
2022/08/17 01:03:18;;;;;;;8.75;4.97;;;;;;;;;;4179848;28;20032;-62
2022/08/17 01:05:22;;;;;;;8.55;4.30;;;;;;;;;;4187925;28;20032;-62
2022/08/17 01:07:24;;;;;;;6.00;3.72;;;;;;;;;;4204199;28;20032;-62
2022/08/17 01:09:25;;;;;;;10.25;4.80;;;;;;;;;;4216073;28;20089;-60
2022/08/17 01:11:28;;;;;;;4.38;2.83;;;;;;;;;;4198897;28;20032;-59
2022/08/17 01:13:35;;;;;;;24.95;4.22;;;;;;;;;;4200217;28;20032;-59
2022/08/17 01:15:37;;;;;;;40.78;5.85;;;;;;;;;;4199789;28;20434;-59
2022/08/17 01:17:38;;;;;;;15.40;5.30;;;;;;;;;;4199873;28;20102;-61
2022/08/17 01:19:40;;;;;;;16.73;4.32;;;;;;;;;;4207842;28;20541;-59
2022/08/17 01:21:47;;;;;;;11.10;4.30;;;;;;;;;;4216588;28;20430;-59
2022/08/17 01:23:48;;;;;;;13.65;5.00;;;;;;;;;;4217071;28;20093;-59
2022/08/17 01:25:50;;;;;;;14.93;4.45;;;;;;;;;;4216355;28;20036;-59
2022/08/17 01:27:51;;;;;;;14.55;3.95;;;;;;;;;;4210880;28;20040;-60
2022/08/17 01:29:57;;;;;;;13.02;5.55;;;;;;;;;;4183713;28;20025;-59
2022/08/17 01:32:03;;;;;;;13.18;5.63;;;;;;;;;;4183426;28;20599;-59
2022/08/17 01:34:09;;;;;;;14.40;6.68;;;;;;;;;;4183180;28;20450;-59
2022/08/17 01:36:10;;;;;;;13.13;6.03;;;;;;;;;;4183908;28;20020;-59
2022/08/17 01:38:11;;;;;;;14.90;6.68;;;;;;;;;;4184091;28;20017;-58
2022/08/17 01:40:17;;;;;;;11.60;6.43;;;;;;;;;;4183428;28;20072;-58
2022/08/17 01:42:30;;;;;;;12.05;5.90;;;;;;;;;;4183693;28;20071;-58
2022/08/17 01:44:31;;;;;;;13.73;6.85;;;;;;;;;;4183348;28;20041;-58
2022/08/17 01:46:34;;;;;;;16.25;8.75;;;;;;;;;;4183811;28;20534;-58
2022/08/17 01:48:36;;;;;;;12.60;6.63;;;;;;;;;;4183182;28;20041;-59
2022/08/17 01:50:44;;;;;;;14.93;7.95;;;;;;;;;;4183066;28;20064;-59
2022/08/17 01:52:48;;;;;;;14.68;7.93;;;;;;;;;;4182599;28;20045;-58
2022/08/17 01:54:49;;;;;;;12.45;6.88;;;;;;;;;;4182971;28;20091;-59
2022/08/17 01:56:53;;;;;;;13.10;6.20;;;;;;;;;;4182837;28;20029;-58
2022/08/17 01:58:55;;;;;;;14.23;7.10;;;;;;;;;;4182971;28;20090;-58
2022/08/17 02:00:58;;;;;;;11.48;6.22;;;;;;;;;;4177215;28;20079;-58
2022/08/17 02:03:02;;;;;;;16.90;9.10;;;;;;;;;;4194635;28;20037;-59
2022/08/17 02:05:03;;;;;;;15.60;7.30;;;;;;;;;;4199736;28;20040;-59
2022/08/17 02:07:04;;;;;;;16.80;7.00;;;;;;;;;;4199264;28;20048;-59
2022/08/17 02:09:05;;;;;;;12.52;6.15;;;;;;;;;;4196484;28;20361;-59
2022/08/17 02:11:13;;;;;;;13.93;6.70;;;;;;;;;;4184222;28;20075;-58
2022/08/17 02:13:14;;;;;;;18.77;8.73;;;;;;;;;;4182526;28;20365;-58
2022/08/17 02:15:19;;;;;;;10.57;6.25;;;;;;;;;;4183325;28;20045;-59
2022/08/17 02:17:20;;;;;;;19.95;10.90;;;;;;;;;;4216405;28;20036;-59
2022/08/17 02:19:21;;;;;;;12.68;7.90;;;;;;;;;;4200721;28;20036;-59
2022/08/17 02:21:22;;;;;;;15.05;7.95;;;;;;;;;;4182347;28;20037;-59
2022/08/17 02:23:28;;;;;;;15.57;9.35;;;;;;;;;;4182686;28;20037;-59
2022/08/17 02:25:31;;;;;;;15.90;7.03;;;;;;;;;;4182469;28;20082;-60
2022/08/17 02:27:32;;;;;;;13.02;6.85;;;;;;;;;;4188396;28;20025;-60
2022/08/17 02:29:33;;;;;;;12.40;6.75;;;;;;;;;;4209286;28;20067;-59
2022/08/17 02:31:34;;;;;;;13.18;6.70;;;;;;;;;;4198140;28;20029;-59
2022/08/17 02:33:35;;;;;;;13.23;7.20;;;;;;;;;;4214422;28;20032;-60
2022/08/17 02:35:37;;;;;;;10.32;6.20;;;;;;;;;;4198763;28;20536;-59
2022/08/17 02:37:42;;;;;;;11.10;6.18;;;;;;;;;;4202173;28;20102;-59
2022/08/17 02:39:44;;;;;;;11.13;6.38;;;;;;;;;;4199926;28;20062;-59
2022/08/17 02:41:47;;;;;;;8.85;6.32;;;;;;;;;;4210619;28;20039;-59
2022/08/17 02:43:48;;;;;;;10.63;6.60;;;;;;;;;;4214540;28;20108;-59
2022/08/17 02:45:50;;;;;;;9.93;6.32;;;;;;;;;;4207502;28;20044;-59
2022/08/17 02:47:51;;;;;;;12.02;6.75;;;;;;;;;;4191930;28;20109;-59
2022/08/17 02:49:53;;;;;;;11.77;6.82;;;;;;;;;;4188109;28;20041;-60
2022/08/17 02:51:57;;;;;;;9.65;6.43;;;;;;;;;;4213398;28;20047;-60
2022/08/17 02:53:58;;;;;;;13.00;6.53;;;;;;;;;;4197413;28;20446;-59
2022/08/17 02:55:59;;;;;;;10.25;6.90;;;;;;;;;;4199627;28;20040;-60
2022/08/17 02:58:00;;;;;;;11.70;6.55;;;;;;;;;;4198753;28;20056;-58
2022/08/17 03:00:02;;;;;;;12.68;7.10;;;;;;;;;;4198025;28;20535;-58
2022/08/17 03:02:05;;;;;;;11.30;6.57;;;;;;;;;;4199143;28;20029;-58
2022/08/17 03:04:06;;;;;;;10.02;6.00;;;;;;;;;;4198380;28;20082;-59
2022/08/17 03:06:07;;;;;;;13.15;6.82;;;;;;;;;;4199165;28;20028;-58
2022/08/17 03:08:08;;;;;;;10.55;6.32;;;;;;;;;;4200305;28;20492;-59
2022/08/17 03:10:10;;;;;;;11.30;6.13;;;;;;;;;;4194276;28;20108;-59
2022/08/17 03:12:11;;;;;;;9.02;6.18;;;;;;;;;;4204362;28;20101;-60
2022/08/17 03:14:15;;;;;;;9.57;6.28;;;;;;;;;;4205453;28;20376;-59
2022/08/17 03:16:19;;;;;;;11.10;6.40;;;;;;;;;;4213844;28;20036;-59
2022/08/17 03:18:22;;;;;;;11.75;7.22;;;;;;;;;;4203659;28;20350;-58
2022/08/17 03:20:26;;;;;;;18.92;6.68;;;;;;;;;;4198618;28;20569;-58
2022/08/17 03:22:27;;;;;;;;;;;;;;;;;;4205866;28;20085;-58
2022/08/17 03:24:28;;;;;;;13.40;6.97;;;;;;;;;;4198159;28;20378;-58
2022/08/17 03:26:31;;;;;;;14.90;8.43;;;;;;;;;;4201934;28;20036;-58
2022/08/17 03:28:36;;;;;;;24.08;9.95;;;;;;;;;;4182749;28;20021;-59
2022/08/17 03:30:37;;;;;;;23.63;10.07;;;;;;;;;;4180197;28;20029;-59
2022/08/17 03:32:43;;;;;;;21.27;9.40;;;;;;;;;;4186325;28;20074;-59
2022/08/17 03:34:44;;;;;;;22.60;9.88;;;;;;;;;;4197949;28;20044;-59
2022/08/17 03:36:45;;;;;;;16.10;9.13;;;;;;;;;;4198645;28;20059;-58
2022/08/17 03:38:45;;;;;;;19.05;9.32;;;;;;;;;;4197826;28;20036;-59
2022/08/17 03:40:47;;;;;;;17.90;9.15;;;;;;;;;;4196199;28;20464;-59
2022/08/17 03:42:51;;;;;;;19.83;9.73;;;;;;;;;;4193270;28;20036;-59
2022/08/17 03:44:52;;;;;;;18.47;8.93;;;;;;;;;;4192155;28;20028;-60
2022/08/17 03:56:43;;;;;;;12.57;8.73;;;;;;;;;;4148306;28;20041;-60
2022/08/17 03:58:44;;;;;;;15.50;7.72;;;;;;;;;;4181190;28;20095;-60
2022/08/17 04:00:45;;;;;;;12.95;7.80;;;;;;;;;;4172289;28;20036;-60
2022/08/17 04:02:46;;;;;;;14.88;7.60;;;;;;;;;;4188617;28;20029;-60
2022/08/17 04:04:51;;;;;;;12.52;7.63;;;;;;;;;;4197609;28;20040;-60
2022/08/17 04:06:51;;;;;;;14.85;8.43;;;;;;;;;;4189791;28;20037;-60
2022/08/17 04:08:52;;;;;;;12.20;7.30;;;;;;;;;;4181110;28;20040;-60
2022/08/17 04:10:54;;;;;;;14.27;8.10;;;;;;;;;;4177942;28;20044;-60
2022/08/17 04:12:57;;;;;;;11.75;7.50;;;;;;;;;;4180752;28;20468;-60
2022/08/17 04:15:00;;;;;;;14.35;7.75;;;;;;;;;;4202048;28;20491;-60
2022/08/17 04:17:01;;;;;;;13.70;7.70;;;;;;;;;;4214122;28;20077;-60
2022/08/17 04:19:04;;;;;;;10.05;7.03;;;;;;;;;;4196616;28;20032;-60
2022/08/17 04:21:07;;;;;;;15.60;7.20;;;;;;;;;;4197332;28;20083;-60
2022/08/17 04:23:12;;;;;;;13.15;7.53;;;;;;;;;;4197336;28;20044;-60
2022/08/17 04:25:14;;;;;;;11.88;7.43;;;;;;;;;;4197230;28;20029;-64
2022/08/17 04:27:15;;;;;;;14.35;7.55;;;;;;;;;;4197213;28;20032;-60
2022/08/17 04:29:16;;;;;;;13.18;6.57;;;;;;;;;;4197444;28;20033;-58
2022/08/17 04:31:17;;;;;;;12.00;6.90;;;;;;;;;;4189381;28;20041;-60
2022/08/17 04:33:20;;;;;;;12.05;6.75;;;;;;;;;;4191431;28;20060;-60
2022/08/17 04:35:23;;;;;;;10.85;6.75;;;;;;;;;;4190376;28;20040;-60
2022/08/17 04:37:26;;;;;;;11.25;6.88;;;;;;;;;;4191279;28;20036;-60
2022/08/17 04:39:27;;;;;;;13.32;7.55;;;;;;;;;;4197137;28;20029;-61
2022/08/17 04:43:48;;;;;;;11.55;7.35;;;;;;;;;;4214495;28;20028;-60
2022/08/17 04:45:56;;;;;;;13.00;7.20;;;;;;;;;;4210005;28;20048;-60
2022/08/17 04:47:57;;;;;;;12.13;7.40;;;;;;;;;;4205768;28;20036;-60
2022/08/17 04:50:00;;;;;;;11.65;6.28;;;;;;;;;;4197140;28;20029;-58
2022/08/17 04:52:03;;;;;;;11.77;7.20;;;;;;;;;;4193098;28;20534;-60
2022/08/17 04:54:07;;;;;;;12.20;6.53;;;;;;;;;;4180815;28;20102;-60
2022/08/17 04:56:11;;;;;;;9.75;6.35;;;;;;;;;;4180689;28;20061;-61
2022/08/17 04:58:12;;;;;;;10.88;6.75;;;;;;;;;;4180381;28;20032;-58
2022/08/17 05:00:19;;;;;;;11.55;6.28;;;;;;;;;;4180850;28;20461;-59
2022/08/17 05:02:20;;;;;;;12.05;6.72;;;;;;;;;;4179599;28;20025;-60
2022/08/17 05:04:22;;;;;;;9.73;6.13;;;;;;;;;;4180385;28;20032;-60
2022/08/17 05:06:24;;;;;;;8.50;6.35;;;;;;;;;;4180710;28;20032;-60
2022/08/17 05:08:25;;;;;;;16.33;6.47;;;;;;;;;;4180494;28;20102;-60
2022/08/17 05:10:27;;;;;;;8.70;5.85;;;;;;;;;;4180881;28;20083;-59
2022/08/17 05:12:28;;;;;;;10.88;6.07;;;;;;;;;;4179930;28;20083;-60
2022/08/17 05:14:29;;;;;;;8.15;5.50;;;;;;;;;;4206820;28;20036;-60
2022/08/17 05:16:30;;;;;;;11.38;5.93;;;;;;;;;;4198548;28;20039;-58
2022/08/17 05:18:31;;;;;;;8.35;5.20;;;;;;;;;;4197200;28;20071;-57
2022/08/17 05:20:33;;;;;;;10.70;5.68;;;;;;;;;;4202888;28;20041;-58
2022/08/17 05:22:34;;;;;;;8.23;5.40;;;;;;;;;;4190955;28;20083;-58
2022/08/17 05:24:35;;;;;;;9.20;5.82;;;;;;;;;;4179883;28;20116;-58
2022/08/17 05:26:36;;;;;;;8.80;5.40;;;;;;;;;;4186066;28;20021;-58
2022/08/17 05:28:37;;;;;;;8.15;5.78;;;;;;;;;;4180187;28;20037;-58
2022/08/17 05:30:39;;;;;;;7.82;5.55;;;;;;;;;;4179942;28;20121;-58
2022/08/17 05:32:53;;;;;;;10.10;5.10;;;;;;;;;;4180776;28;20086;-60
2022/08/17 05:34:58;;;;;;;8.00;4.93;;;;;;;;;;4209463;28;20093;-58
2022/08/17 05:36:59;;;;;;;6.85;4.65;;;;;;;;;;4213254;28;20098;-58
2022/08/17 05:39:00;;;;;;;6.97;5.20;;;;;;;;;;4207915;28;20029;-58
2022/08/17 05:41:05;;;;;;;8.18;5.30;;;;;;;;;;4196034;28;20431;-58
2022/08/17 05:43:16;;;;;;;6.78;5.28;;;;;;;;;;4195685;28;20029;-59
2022/08/17 05:45:18;;;;;;;7.75;5.53;;;;;;;;;;4196524;28;20032;-58
2022/08/17 05:47:20;;;;;;;9.00;5.20;;;;;;;;;;4196592;28;20040;-58
2022/08/17 05:49:26;;;;;;;6.28;5.03;;;;;;;;;;4196702;28;20036;-60
2022/08/17 05:51:26;;;;;;;9.48;4.93;;;;;;;;;;4195806;28;20071;-60
2022/08/17 05:53:47;;;;;;;9.15;4.88;;;;;;;;;;4197161;28;20048;-58
2022/08/17 05:55:48;;;;;;;8.68;5.20;;;;;;;;;;4198986;28;20044;-58
2022/08/17 05:57:55;;;;;;;10.05;5.18;;;;;;;;;;4199727;28;20529;-58
2022/08/17 06:00:06;;;;;;;7.00;5.00;;;;;;;;;;4198505;28;20066;-58
2022/08/17 06:02:16;;;;;;;6.43;4.65;;;;;;;;;;4199662;28;20142;-58
2022/08/17 06:04:26;;;;;;;8.25;5.53;;;;;;;;;;4199180;28;20103;-58
2022/08/17 06:06:36;;;;;;;8.63;5.05;;;;;;;;;;4199252;28;20086;-58
2022/08/17 06:08:46;;;;;;;6.13;4.00;;;;;;;;;;4199243;28;20037;-58
2022/08/17 06:10:56;;;;;;;7.03;4.68;;;;;;;;;;4198724;28;20037;-59
2022/08/17 06:13:15;;;;;;;6.45;4.63;;;;;;;;;;4199327;28;20082;-59
2022/08/17 06:15:25;;;;;;;11.25;4.43;;;;;;;;;;4195862;28;20099;-58
2022/08/17 06:17:27;;;;;;;7.93;4.65;;;;;;;;;;4183264;28;20029;-60
2022/08/17 06:19:33;;;;;;;6.28;3.78;;;;;;;;;;4209696;28;20356;-58
2022/08/17 06:21:39;;;;;;;6.38;4.25;;;;;;;;;;4207256;28;20020;-58
2022/08/17 06:24:01;;;;;;;5.35;4.20;;;;;;;;;;4202653;28;20533;-58
2022/08/17 06:26:10;;;;;;;6.90;4.07;;;;;;;;;;4203768;28;20090;-57
2022/08/17 06:28:13;;;;;;;9.35;4.55;;;;;;;;;;4183686;28;20036;-58
2022/08/17 06:30:23;;;;;;;6.72;4.15;;;;;;;;;;4182099;28;20083;-60
2022/08/17 06:32:24;;;;;;;8.43;4.63;;;;;;;;;;4182008;28;20090;-58
2022/08/17 06:34:28;;;;;;;5.72;4.30;;;;;;;;;;4188735;28;20099;-58
2022/08/17 06:36:54;;;;;;;5.60;4.20;;;;;;;;;;4193174;28;20150;-58
2022/08/17 06:39:14;;;;;;;4.97;3.83;;;;;;;;;;4193519;28;20036;-58
2022/08/17 06:41:33;;;;;;;5.45;4.20;;;;;;;;;;4180202;28;20029;-59
2022/08/17 06:43:48;;;;;;;6.55;3.97;;;;;;;;;;4198315;28;20365;-59
2022/08/17 06:46:06;;;;;;;7.30;4.20;;;;;;;;;;4197511;28;20020;-58
2022/08/17 06:48:16;;;;;;;5.53;3.85;;;;;;;;;;4198801;28;20258;-58
2022/08/17 06:50:17;;;;;;;5.25;3.72;;;;;;;;;;4199084;28;20444;-59
2022/08/17 06:52:21;;;;;;;4.85;3.55;;;;;;;;;;4198841;28;20040;-58
2022/08/17 06:54:22;;;;;;;7.80;4.28;;;;;;;;;;4189536;28;20463;-58
2022/08/17 06:56:32;;;;;;;5.97;3.90;;;;;;;;;;4195006;28;20043;-59
2022/08/17 06:58:34;;;;;;;4.93;3.70;;;;;;;;;;4197289;28;20032;-59
2022/08/17 07:00:37;;;;;;;6.35;3.83;;;;;;;;;;4184093;28;20497;-59
2022/08/17 07:02:46;;;;;;;5.22;4.03;;;;;;;;;;4182279;28;20036;-59
2022/08/17 07:04:47;;;;;;;7.07;3.78;;;;;;;;;;4182174;28;20033;-59
2022/08/17 07:07:00;;;;;;;5.03;3.47;;;;;;;;;;4182371;28;20029;-59
2022/08/17 07:09:36;;;;;;;7.60;3.97;;;;;;;;;;4190208;28;20146;-59
2022/08/17 07:11:47;;;;;;;6.97;3.90;;;;;;;;;;4135425;28;20108;-59
2022/08/17 07:14:04;;;;;;;5.65;3.25;;;;;;;;;;4147254;28;20100;-59
2022/08/17 07:16:09;;;;;;;5.03;3.42;;;;;;;;;;4184754;28;20103;-59
2022/08/17 07:18:10;;;;;;;4.28;3.00;;;;;;;;;;4181603;28;20127;-59
2022/08/17 07:20:13;;;;;;;4.35;3.10;;;;;;;;;;4181959;28;20055;-58
2022/08/17 07:22:20;;;;;;;6.72;3.13;;;;;;;;;;4181625;28;20059;-59
2022/08/17 07:24:28;;;;;;;7.05;3.45;;;;;;;;;;4182057;28;20146;-59
2022/08/17 07:26:32;;;;;;;4.03;3.05;;;;;;;;;;4181999;28;20314;-59
2022/08/17 07:28:34;;;;;;;4.93;3.50;;;;;;;;;;4181748;28;20477;-59
2022/08/17 07:30:44;;;;;;;5.15;3.40;;;;;;;;;;4164119;28;20095;-59
2022/08/17 07:32:50;;;;;;;4.05;3.08;;;;;;;;;;4181655;28;20036;-59
2022/08/17 07:34:59;;;;;;;4.55;3.22;;;;;;;;;;4181625;28;20033;-59
2022/08/17 07:37:04;;;;;;;3.90;3.28;;;;;;;;;;4181767;28;20029;-59
2022/08/17 07:39:05;;;;;;;5.55;3.45;;;;;;;;;;4181730;28;20021;-59
2022/08/17 07:41:07;;;;;;;6.40;3.30;;;;;;;;;;4181233;28;20029;-59
2022/08/17 07:43:11;;;;;;;4.28;2.72;;;;;;;;;;4193709;28;20032;-58
2022/08/17 07:48:18;;;;;;;3.60;2.80;;;;;;;;;;4198190;28;20032;-59
2022/08/17 07:49:52;;;;;;;3.45;2.75;;;;;;;;;;4183267;28;20017;-59
2022/08/17 07:51:56;;;;;;;3.88;3.28;;;;;;;;;;4180587;28;20047;-58
2022/08/17 07:54:01;;;;;;;7.28;2.80;;;;;;;;;;4181064;28;20106;-58
2022/08/17 07:56:02;;;;;;;4.78;3.47;;;;;;;;;;4181027;28;20057;-58
2022/08/17 07:58:03;;;;;;;4.68;2.72;;;;;;;;;;4181832;28;20061;-58
2022/08/17 08:00:08;;;;;;;3.55;2.65;;;;;;;;;;4196632;28;20032;-58
2022/08/17 08:02:15;;;;;;;3.83;2.65;;;;;;;;;;4197518;28;20028;-58
2022/08/17 08:04:21;;;;;;;3.65;2.60;;;;;;;;;;4188942;28;20436;-58
2022/08/17 08:06:23;;;;;;;3.72;2.80;;;;;;;;;;4185880;28;20476;-59
2022/08/17 08:08:29;;;;;;;3.53;2.90;;;;;;;;;;4189755;28;20083;-58
2022/08/17 08:10:31;;;;;;;3.58;2.58;;;;;;;;;;4191941;28;20036;-59
2022/08/17 08:12:35;;;;;;;2.92;2.60;;;;;;;;;;4197506;28;20365;-59
2022/08/17 08:14:38;;;;;;;4.63;2.50;;;;;;;;;;4197764;28;20430;-59
2022/08/17 08:16:39;;;;;;;3.22;2.38;;;;;;;;;;4195007;28;20048;-59
2022/08/17 08:18:42;;;;;;;3.47;2.67;;;;;;;;;;4197252;28;20033;-59
2022/08/17 08:20:48;;;;;;;2.88;2.40;;;;;;;;;;4197196;28;20121;-59
2022/08/17 08:22:56;;;;;;;4.28;2.30;;;;;;;;;;4197763;28;20037;-59
2022/08/17 08:24:56;;;;;;;2.83;2.50;;;;;;;;;;4197254;28;20033;-58
2022/08/17 08:27:08;;;;;;;3.33;2.47;;;;;;;;;;4197636;28;20032;-59
2022/08/17 08:29:12;;;;;;;3.95;2.60;;;;;;;;;;4197224;28;20040;-59
2022/08/17 08:31:23;;;;;;;6.80;2.65;;;;;;;;;;4196399;28;20074;-59
2022/08/17 08:33:28;;;;;;;3.22;2.40;;;;;;;;;;4192967;28;20439;-58
2022/08/17 08:35:36;;;;;;;3.00;2.53;;;;;;;;;;4191146;28;20098;-58
2022/08/17 08:37:54;;;;;;;2.72;2.20;;;;;;;;;;4197956;28;20545;-58
2022/08/17 08:40:07;;;;;;;4.30;2.50;;;;;;;;;;4196698;28;20093;-59
2022/08/17 08:42:08;;;;;;;3.22;2.17;;;;;;;;;;4181460;28;20033;-59
2022/08/17 08:44:11;;;;;;;3.88;2.38;;;;;;;;;;4180997;28;20476;-59
2022/08/17 08:46:23;;;;;;;2.85;2.13;;;;;;;;;;4180860;28;20029;-59
2022/08/17 08:48:26;;;;;;;3.42;2.50;;;;;;;;;;4180598;28;20041;-59
2022/08/17 08:50:39;;;;;;;3.05;2.38;;;;;;;;;;4187993;28;20040;-58
2022/08/17 08:52:42;;;;;;;3.20;2.60;;;;;;;;;;4196974;28;20041;-59
2022/08/17 08:54:47;;;;;;;3.05;2.35;;;;;;;;;;4197347;28;20066;-58
2022/08/17 08:56:51;;;;;;;4.95;2.50;;;;;;;;;;4196750;28;20037;-58
2022/08/17 08:58:58;;;;;;;3.03;2.10;;;;;;;;;;4189530;28;20029;-59
2022/08/17 09:00:59;;;;;;;2.40;2.05;;;;;;;;;;4180023;28;20094;-59
2022/08/17 09:03:08;;;;;;;3.00;2.40;;;;;;;;;;4180354;28;20361;-58
2022/08/17 09:05:20;;;;;;;3.95;2.33;;;;;;;;;;4180687;28;20040;-58
2022/08/17 09:07:21;;;;;;;3.08;1.80;;;;;;;;;;4180712;28;20037;-59
2022/08/17 09:09:50;;;;;;;2.13;1.92;;;;;;;;;;4179695;28;20040;-59
2022/08/17 09:12:09;;;;;;;3.38;2.30;;;;;;;;;;4151803;28;20111;-59
2022/08/17 09:14:10;;;;;;;2.55;1.73;;;;;;;;;;4181823;28;20537;-59
2022/08/17 09:16:21;;;;;;;3.15;1.90;;;;;;;;;;4194750;28;20045;-59
2022/08/17 09:18:25;;;;;;;2.13;1.92;;;;;;;;;;4185784;28;20029;-59
2022/08/17 09:20:29;;;;;;;2.90;1.87;;;;;;;;;;4196517;28;20593;-59
2022/08/17 09:22:36;;;;;;;2.30;1.92;;;;;;;;;;4190296;28;20041;-59
2022/08/17 09:24:55;;;;;;;3.10;2.10;;;;;;;;;;4180826;28;20044;-59
2022/08/17 09:27:02;;;;;;;2.85;1.98;;;;;;;;;;4192388;28;20032;-59
2022/08/17 09:29:07;;;;;;;2.15;1.50;;;;;;;;;;4197363;28;20166;-59
2022/08/17 09:31:11;;;;;;;2.33;1.98;;;;;;;;;;4195342;28;20552;-59
2022/08/17 09:33:14;;;;;;;2.28;1.65;;;;;;;;;;4183675;28;20063;-59
2022/08/17 09:35:15;;;;;;;4.25;2.17;;;;;;;;;;4185369;28;20357;-59
2022/08/17 09:37:31;;;;;;;2.65;1.88;;;;;;;;;;4198970;28;20092;-59
2022/08/17 09:39:35;;;;;;;2.20;1.80;;;;;;;;;;4193993;28;20032;-59
2022/08/17 09:41:47;;;;;;;2.60;1.95;;;;;;;;;;4186830;28;20032;-58
2022/08/17 09:44:01;;;;;;;2.28;1.52;;;;;;;;;;4196438;28;20483;-59
2022/08/17 09:46:07;;;;;;;2.00;1.48;;;;;;;;;;4197265;28;20040;-59
2022/08/17 09:48:23;;;;;;;1.88;1.38;;;;;;;;;;4199669;28;20040;-59
2022/08/17 09:50:27;;;;;;;2.08;1.88;;;;;;;;;;4197229;28;20044;-59
2022/08/17 09:52:28;;;;;;;2.23;1.70;;;;;;;;;;4197948;28;20109;-59
2022/08/17 09:54:31;;;;;;;1.60;1.50;;;;;;;;;;4182151;28;20664;-59
2022/08/17 09:56:37;;;;;;;2.47;1.98;;;;;;;;;;4198835;28;20044;-58
2022/08/17 09:58:49;;;;;;;1.80;1.50;;;;;;;;;;4199139;28;20046;-59
2022/08/17 10:00:54;;;;;;;2.13;1.48;;;;;;;;;;4192780;28;20052;-59
2022/08/17 10:03:14;;;;;;;1.83;1.73;;;;;;;;;;4180998;28;20025;-59
2022/08/17 10:05:27;;;;;;;1.88;1.45;;;;;;;;;;4183171;28;20045;-59
2022/08/17 10:07:46;;;;;;;2.47;1.80;;;;;;;;;;4185337;28;20094;-59
2022/08/17 10:09:54;;;;;;;1.73;1.42;;;;;;;;;;4195434;28;20040;-59
2022/08/17 10:14:21;;;;;;;2.30;1.70;;;;;;;;;;4196375;28;20025;-59
2022/08/17 10:16:39;;;;;;;1.98;1.77;;;;;;;;;;4183151;28;20036;-59
2022/08/17 10:18:48;;;;;;;3.33;1.88;;;;;;;;;;4187588;28;20857;-60
2022/08/17 10:26:14;;;;;;;1.90;1.70;;;;;;;;;;4184017;28;20025;-59
2022/08/17 10:28:17;;;;;;;2.83;1.60;;;;;;;;;;4198334;28;20036;-59
2022/08/17 10:30:22;;;;;;;1.40;1.30;;;;;;;;;;4190042;28;20083;-59
2022/08/17 10:32:34;;;;;;;2.17;1.90;;;;;;;;;;4192769;28;20089;-59
2022/08/17 10:35:01;;;;;;;1.70;1.55;;;;;;;;;;4199304;28;20090;-59
2022/08/17 10:37:05;;;;;;;1.83;1.73;;;;;;;;;;4188270;28;20100;-59
2022/08/17 10:39:18;;;;;;;1.90;1.57;;;;;;;;;;4182636;28;20431;-59
2022/08/17 10:41:23;;;;;;;2.92;1.58;;;;;;;;;;4185052;28;20049;-60
2022/08/17 10:43:43;;;;;;;3.60;1.50;;;;;;;;;;4187162;28;20110;-60
2022/08/17 10:46:02;;;;;;;1.48;1.30;;;;;;;;;;4185834;28;20090;-59
2022/08/17 10:48:06;;;;;;;2.30;1.70;;;;;;;;;;4182915;28;20032;-59
2022/08/17 10:50:29;;;;;;;2.03;1.48;;;;;;;;;;4185293;28;20029;-60
2022/08/17 10:52:30;;;;;;;1.98;1.50;;;;;;;;;;4195253;28;20466;-59
2022/08/17 10:54:38;;;;;;;2.15;1.70;;;;;;;;;;4182521;28;20127;-60
2022/08/17 10:56:44;;;;;;;1.52;1.40;;;;;;;;;;4185323;28;20508;-60
2022/08/17 10:58:48;;;;;;;2.70;1.85;;;;;;;;;;4185753;28;20095;-59
2022/08/17 11:00:57;;;;;;;1.70;1.33;;;;;;;;;;4191403;28;20105;-60
2022/08/17 11:02:58;;;;;;;3.10;2.10;;;;;;;;;;4198582;28;20442;-60
2022/08/17 11:04:59;;;;;;;1.70;1.50;;;;;;;;;;4187723;28;20033;-59
2022/08/17 11:07:06;;;;;;;1.83;1.23;;;;;;;;;;4194448;28;20033;-60
2022/08/17 11:09:26;;;;;;;1.95;1.40;;;;;;;;;;4197022;28;20029;-60
2022/08/17 11:11:38;;;;;;;1.30;1.20;;;;;;;;;;4187465;28;20041;-60
2022/08/17 11:13:39;;;;;;;1.90;1.00;;;;;;;;;;4198142;28;20383;-60
2022/08/17 11:15:43;;;;;;;1.45;1.27;;;;;;;;;;4191011;28;20033;-59
2022/08/17 11:18:00;;;;;;;2.13;1.42;;;;;;;;;;4197291;28;20365;-59
2022/08/17 11:20:13;;;;;;;2.13;1.38;;;;;;;;;;4198018;28;20438;-59
2022/08/17 11:22:32;;;;;;;2.05;1.52;;;;;;;;;;4198254;28;20044;-59
2022/08/17 11:24:38;;;;;;;1.65;1.35;;;;;;;;;;4198336;28;20036;-60
2022/08/17 11:26:45;;;;;;;1.38;1.27;;;;;;;;;;4198111;28;20029;-60
2022/08/17 11:28:49;;;;;;;1.70;1.38;;;;;;;;;;4182964;28;20432;-59
2022/08/17 11:30:52;;;;;;;2.05;1.30;;;;;;;;;;4181499;28;20033;-60
2022/08/17 11:32:54;;;;;;;1.40;1.30;;;;;;;;;;4181646;28;20025;-59
2022/08/17 11:35:18;;;;;;;1.77;1.58;;;;;;;;;;4181710;28;20049;-60
2022/08/17 11:37:30;;;;;;;2.47;1.70;;;;;;;;;;4171180;28;20095;-59
2022/08/17 11:39:57;;;;;;;1.48;1.38;;;;;;;;;;4181790;28;20083;-59
2022/08/17 11:42:16;;;;;;;1.75;1.13;;;;;;;;;;4181755;28;20032;-60
2022/08/17 11:44:23;;;;;;;1.42;1.30;;;;;;;;;;4181542;28;20037;-60
2022/08/17 11:51:39;;;;;;;1.55;1.45;;;;;;;;;;4180842;28;20017;-60
2022/08/17 11:53:40;;;;;;;1.48;1.33;;;;;;;;;;4191387;28;20048;-60
2022/08/17 11:55:40;;;;;;;1.70;1.58;;;;;;;;;;4198258;28;20028;-59
2022/08/17 11:57:44;;;;;;;1.80;1.50;;;;;;;;;;4188052;28;20413;-60
2022/08/17 11:59:45;;;;;;;1.50;1.40;;;;;;;;;;4192039;28;20099;-60
2022/08/17 12:01:50;;;;;;;1.60;1.30;;;;;;;;;;4185831;28;20060;-60
2022/08/17 12:03:56;;;;;;;;;;;;;;;;;;4181326;28;20553;-60
2022/08/17 12:06:20;;;;;;;1.42;1.33;;;;;;;;;;4181971;28;20324;-60
2022/08/17 12:08:21;;;;;;;2.42;1.50;;;;;;;;;;4168833;28;20491;-60
2022/08/17 12:10:30;;;;;;;2.70;1.20;;;;;;;;;;4181659;28;20029;-60
2022/08/17 12:12:37;;;;;;;1.20;1.10;;;;;;;;;;4185818;28;20024;-60
2022/08/17 12:14:40;;;;;;;1.58;1.48;;;;;;;;;;4181432;28;20083;-60
2022/08/17 12:16:42;;;;;;;1.40;1.30;;;;;;;;;;4183145;28;20102;-60
2022/08/17 12:18:51;;;;;;;1.75;1.65;;;;;;;;;;4183726;28;20032;-59
2022/08/17 12:21:03;;;;;;;1.40;1.30;;;;;;;;;;4194351;28;20456;-60
2022/08/17 12:23:19;;;;;;;1.40;1.25;;;;;;;;;;4188453;28;20487;-60
2022/08/17 12:25:23;;;;;;;1.30;1.20;;;;;;;;;;4196069;28;20078;-61
2022/08/17 12:27:30;;;;;;;2.10;1.33;;;;;;;;;;4194675;28;20020;-60
2022/08/17 12:29:33;;;;;;;1.10;1.10;;;;;;;;;;4185054;28;20491;-60
2022/08/17 12:31:35;;;;;;;1.30;1.20;;;;;;;;;;4195342;28;20426;-60
2022/08/17 12:33:41;;;;;;;2.30;1.27;;;;;;;;;;4197027;28;20490;-60
2022/08/17 12:35:43;;;;;;;1.20;1.10;;;;;;;;;;4194625;28;20036;-60
2022/08/17 12:37:49;;;;;;;2.10;1.25;;;;;;;;;;4183292;28;20037;-59
2022/08/17 12:39:55;;;;;;;1.35;1.25;;;;;;;;;;4185299;28;20040;-60
2022/08/17 12:41:57;;;;;;;1.60;1.40;;;;;;;;;;4184160;28;20033;-59
2022/08/17 12:44:11;;;;;;;1.70;1.42;;;;;;;;;;4188553;28;20040;-60
2022/08/17 12:46:16;;;;;;;1.58;1.20;;;;;;;;;;4190037;28;20071;-59
2022/08/17 12:48:23;;;;;;;1.25;1.10;;;;;;;;;;4180382;28;20033;-59
2022/08/17 12:50:24;;;;;;;1.38;1.27;;;;;;;;;;4180512;28;20052;-60
2022/08/17 12:52:26;;;;;;;1.73;1.60;;;;;;;;;;4195371;28;20047;-60
2022/08/17 12:54:48;;;;;;;1.55;1.20;;;;;;;;;;4197096;28;20033;-59
2022/08/17 12:56:48;;;;;;;1.48;1.35;;;;;;;;;;4185808;28;20106;-59
2022/08/17 12:58:54;;;;;;;1.40;1.30;;;;;;;;;;4192086;28;20064;-60